< < Back
Terminal Aerodrome Forecast


Current Version              Previous Versions:   1  2  3  4  5  6  7  8  9  

Terminal Aerodrome Forecast

161
FTUS44 KBMX 272323
TAFMGM
TAF
KMGM 272323Z 2800/2824 20005KT P6SM SCT050
     FM281400 24010KT P6SM BKN035
     FM281800 24010KT P6SM SCT050=

Latest METAR

523
SAUS80 KWBC 280100 RRA
MTRMGM
METAR KMGM 280053Z 23009KT 10SM SCT043 SCT075 28/22 A3002 RMK AO2 SLP161
T02830217


USA.gov is the U.S. government's official web portal to all federal, state and local government web resources and services.